sensor_id;sensor_type;location;lat;lon;timestamp;temperature;humidity
8105;DHT22;4095;48.942;9.104;2024-02-21T00:00:36;10.10;99.90
8105;DHT22;4095;48.942;9.104;2024-02-21T00:03:04;10.10;99.90
8105;DHT22;4095;48.942;9.104;2024-02-21T00:05:30;10.10;99.90
8105;DHT22;4095;48.942;9.104;2024-02-21T00:07:57;10.00;99.90
8105;DHT22;4095;48.942;9.104;2024-02-21T00:10:23;10.00;99.90
8105;DHT22;4095;48.942;9.104;2024-02-21T00:12:48;10.10;99.90
8105;DHT22;4095;48.942;9.104;2024-02-21T00:15:14;10.00;99.90
8105;DHT22;4095;48.942;9.104;2024-02-21T00:17:40;10.00;99.90
8105;DHT22;4095;48.942;9.104;2024-02-21T00:20:06;10.10;99.90
8105;DHT22;4095;48.942;9.104;2024-02-21T00:22:32;10.10;99.90
8105;DHT22;4095;48.942;9.104;2024-02-21T00:24:59;10.10;99.90
8105;DHT22;4095;48.942;9.104;2024-02-21T00:27:25;10.20;99.90
8105;DHT22;4095;48.942;9.104;2024-02-21T00:29:50;10.20;99.90
8105;DHT22;4095;48.942;9.104;2024-02-21T00:32:16;10.20;99.90
8105;DHT22;4095;48.942;9.104;2024-02-21T00:34:42;10.20;99.90
8105;DHT22;4095;48.942;9.104;2024-02-21T00:37:07;10.20;99.90
8105;DHT22;4095;48.942;9.104;2024-02-21T00:39:33;10.20;99.90
8105;DHT22;4095;48.942;9.104;2024-02-21T00:41:59;10.20;99.90
8105;DHT22;4095;48.942;9.104;2024-02-21T00:44:24;10.20;99.90
8105;DHT22;4095;48.942;9.104;2024-02-21T00:46:50;10.20;99.90
8105;DHT22;4095;48.942;9.104;2024-02-21T00:49:17;10.20;99.90
8105;DHT22;4095;48.942;9.104;2024-02-21T00:51:42;10.30;99.90
8105;DHT22;4095;48.942;9.104;2024-02-21T00:54:08;10.30;99.90
8105;DHT22;4095;48.942;9.104;2024-02-21T00:56:34;10.40;99.90
8105;DHT22;4095;48.942;9.104;2024-02-21T00:58:59;10.40;99.90
8105;DHT22;4095;48.942;9.104;2024-02-21T01:01:25;10.30;99.90
8105;DHT22;4095;48.942;9.104;2024-02-21T01:03:51;10.40;99.90
8105;DHT22;4095;48.942;9.104;2024-02-21T01:06:19;10.30;99.90
8105;DHT22;4095;48.942;9.104;2024-02-21T01:08:45;10.30;99.90
8105;DHT22;4095;48.942;9.104;2024-02-21T01:11:11;10.30;99.90
8105;DHT22;4095;48.942;9.104;2024-02-21T01:13:37;10.30;99.90
8105;DHT22;4095;48.942;9.104;2024-02-21T01:16:02;10.30;99.90
8105;DHT22;4095;48.942;9.104;2024-02-21T01:18:28;10.30;99.90
8105;DHT22;4095;48.942;9.104;2024-02-21T01:20:53;10.30;99.90
8105;DHT22;4095;48.942;9.104;2024-02-21T01:23:19;10.30;99.90
8105;DHT22;4095;48.942;9.104;2024-02-21T01:25:45;10.30;99.90
8105;DHT22;4095;48.942;9.104;2024-02-21T01:28:10;10.20;99.90
8105;DHT22;4095;48.942;9.104;2024-02-21T01:30:36;10.20;99.90
8105;DHT22;4095;48.942;9.104;2024-02-21T01:33:01;10.20;99.90
8105;DHT22;4095;48.942;9.104;2024-02-21T01:35:27;10.10;99.90
8105;DHT22;4095;48.942;9.104;2024-02-21T01:37:52;10.20;99.90
8105;DHT22;4095;48.942;9.104;2024-02-21T01:40:18;10.20;99.90
8105;DHT22;4095;48.942;9.104;2024-02-21T01:42:43;10.20;99.90
8105;DHT22;4095;48.942;9.104;2024-02-21T01:45:09;10.20;99.90
8105;DHT22;4095;48.942;9.104;2024-02-21T01:47:36;10.30;99.90
8105;DHT22;4095;48.942;9.104;2024-02-21T01:50:02;10.40;99.90
8105;DHT22;4095;48.942;9.104;2024-02-21T01:52:29;10.40;99.90
8105;DHT22;4095;48.942;9.104;2024-02-21T01:54:57;10.50;99.90
8105;DHT22;4095;48.942;9.104;2024-02-21T01:57:23;10.50;99.90
8105;DHT22;4095;48.942;9.104;2024-02-21T01:59:49;10.50;99.90
8105;DHT22;4095;48.942;9.104;2024-02-21T02:02:15;10.50;99.90
8105;DHT22;4095;48.942;9.104;2024-02-21T02:04:42;10.50;99.90
8105;DHT22;4095;48.942;9.104;2024-02-21T02:07:08;10.50;99.90
8105;DHT22;4095;48.942;9.104;2024-02-21T02:09:34;10.50;99.90
8105;DHT22;4095;48.942;9.104;2024-02-21T02:12:01;10.50;99.90
8105;DHT22;4095;48.942;9.104;2024-02-21T02:14:27;10.50;99.90
8105;DHT22;4095;48.942;9.104;2024-02-21T02:16:52;10.50;99.90
8105;DHT22;4095;48.942;9.104;2024-02-21T02:19:18;10.50;99.90
8105;DHT22;4095;48.942;9.104;2024-02-21T02:21:50;10.40;99.90
8105;DHT22;4095;48.942;9.104;2024-02-21T02:24:22;10.50;99.90
8105;DHT22;4095;48.942;9.104;2024-02-21T02:26:49;10.50;99.90
8105;DHT22;4095;48.942;9.104;2024-02-21T02:29:14;10.50;99.90
8105;DHT22;4095;48.942;9.104;2024-02-21T02:31:40;10.40;99.90
8105;DHT22;4095;48.942;9.104;2024-02-21T02:34:05;10.40;99.90
8105;DHT22;4095;48.942;9.104;2024-02-21T02:36:35;10.40;99.90
8105;DHT22;4095;48.942;9.104;2024-02-21T02:39:01;10.30;99.90
8105;DHT22;4095;48.942;9.104;2024-02-21T02:41:26;10.40;99.90
8105;DHT22;4095;48.942;9.104;2024-02-21T02:43:52;10.30;99.90
8105;DHT22;4095;48.942;9.104;2024-02-21T02:46:17;10.40;99.90
8105;DHT22;4095;48.942;9.104;2024-02-21T02:48:43;10.40;99.90
8105;DHT22;4095;48.942;9.104;2024-02-21T02:51:10;10.30;99.90
8105;DHT22;4095;48.942;9.104;2024-02-21T02:53:35;10.30;99.90
8105;DHT22;4095;48.942;9.104;2024-02-21T02:56:01;10.30;99.90
8105;DHT22;4095;48.942;9.104;2024-02-21T02:58:27;10.30;99.90
8105;DHT22;4095;48.942;9.104;2024-02-21T03:00:53;10.30;99.90
8105;DHT22;4095;48.942;9.104;2024-02-21T03:03:19;10.40;99.90
8105;DHT22;4095;48.942;9.104;2024-02-21T03:05:45;10.40;99.90
8105;DHT22;4095;48.942;9.104;2024-02-21T03:08:11;10.40;99.90
8105;DHT22;4095;48.942;9.104;2024-02-21T03:10:36;10.30;99.90
8105;DHT22;4095;48.942;9.104;2024-02-21T03:13:02;10.30;99.90
8105;DHT22;4095;48.942;9.104;2024-02-21T03:15:29;10.30;99.90
8105;DHT22;4095;48.942;9.104;2024-02-21T03:17:54;10.30;99.90
8105;DHT22;4095;48.942;9.104;2024-02-21T03:20:20;10.20;99.90
8105;DHT22;4095;48.942;9.104;2024-02-21T03:22:45;10.30;99.90
8105;DHT22;4095;48.942;9.104;2024-02-21T03:25:11;10.20;99.90
8105;DHT22;4095;48.942;9.104;2024-02-21T03:27:38;10.10;99.90
8105;DHT22;4095;48.942;9.104;2024-02-21T03:30:05;10.10;99.90
8105;DHT22;4095;48.942;9.104;2024-02-21T03:32:30;10.20;99.90
8105;DHT22;4095;48.942;9.104;2024-02-21T03:34:56;10.20;99.90
8105;DHT22;4095;48.942;9.104;2024-02-21T03:37:22;10.20;99.90
8105;DHT22;4095;48.942;9.104;2024-02-21T03:39:48;10.10;99.90
8105;DHT22;4095;48.942;9.104;2024-02-21T03:42:13;10.10;99.90
8105;DHT22;4095;48.942;9.104;2024-02-21T03:44:39;10.10;99.90
8105;DHT22;4095;48.942;9.104;2024-02-21T03:47:04;10.10;99.90
8105;DHT22;4095;48.942;9.104;2024-02-21T03:49:30;10.00;99.90
8105;DHT22;4095;48.942;9.104;2024-02-21T03:51:56;10.00;99.90
8105;DHT22;4095;48.942;9.104;2024-02-21T03:54:21;10.00;99.90
8105;DHT22;4095;48.942;9.104;2024-02-21T03:56:47;10.00;99.90
8105;DHT22;4095;48.942;9.104;2024-02-21T03:59:14;10.00;99.90
8105;DHT22;4095;48.942;9.104;2024-02-21T04:01:40;10.10;99.90
8105;DHT22;4095;48.942;9.104;2024-02-21T04:04:05;10.10;99.90
8105;DHT22;4095;48.942;9.104;2024-02-21T04:06:31;10.10;99.90
8105;DHT22;4095;48.942;9.104;2024-02-21T04:08:57;10.10;99.90
8105;DHT22;4095;48.942;9.104;2024-02-21T04:11:22;10.10;99.90
8105;DHT22;4095;48.942;9.104;2024-02-21T04:13:48;10.00;99.90
8105;DHT22;4095;48.942;9.104;2024-02-21T04:16:16;10.10;99.90
8105;DHT22;4095;48.942;9.104;2024-02-21T04:18:41;10.00;99.90
8105;DHT22;4095;48.942;9.104;2024-02-21T04:21:08;10.00;99.90
8105;DHT22;4095;48.942;9.104;2024-02-21T04:23:33;10.00;99.90
8105;DHT22;4095;48.942;9.104;2024-02-21T04:25:59;10.00;99.90
8105;DHT22;4095;48.942;9.104;2024-02-21T04:28:24;9.90;99.90
8105;DHT22;4095;48.942;9.104;2024-02-21T04:30:50;9.90;99.90
8105;DHT22;4095;48.942;9.104;2024-02-21T04:33:15;9.80;99.90
8105;DHT22;4095;48.942;9.104;2024-02-21T04:35:41;9.80;99.90
8105;DHT22;4095;48.942;9.104;2024-02-21T04:38:06;9.80;99.90
8105;DHT22;4095;48.942;9.104;2024-02-21T04:40:32;9.80;99.90
8105;DHT22;4095;48.942;9.104;2024-02-21T04:42:58;9.80;99.90
8105;DHT22;4095;48.942;9.104;2024-02-21T04:45:23;9.70;99.90
8105;DHT22;4095;48.942;9.104;2024-02-21T04:47:49;9.70;99.90
8105;DHT22;4095;48.942;9.104;2024-02-21T04:50:14;9.60;99.90
8105;DHT22;4095;48.942;9.104;2024-02-21T04:52:40;9.60;99.90
8105;DHT22;4095;48.942;9.104;2024-02-21T04:55:06;9.50;99.90
8105;DHT22;4095;48.942;9.104;2024-02-21T04:57:32;9.50;99.90
8105;DHT22;4095;48.942;9.104;2024-02-21T04:59:58;9.50;99.90
8105;DHT22;4095;48.942;9.104;2024-02-21T05:02:23;9.50;99.90
8105;DHT22;4095;48.942;9.104;2024-02-21T05:04:50;9.40;99.90
8105;DHT22;4095;48.942;9.104;2024-02-21T05:07:16;9.40;99.90
8105;DHT22;4095;48.942;9.104;2024-02-21T05:09:45;9.30;99.90
8105;DHT22;4095;48.942;9.104;2024-02-21T05:12:11;9.30;99.90
8105;DHT22;4095;48.942;9.104;2024-02-21T05:14:37;9.20;99.90
8105;DHT22;4095;48.942;9.104;2024-02-21T05:17:04;9.20;99.90
8105;DHT22;4095;48.942;9.104;2024-02-21T05:19:29;9.20;99.90
8105;DHT22;4095;48.942;9.104;2024-02-21T05:21:55;9.10;99.90
8105;DHT22;4095;48.942;9.104;2024-02-21T05:24:20;9.00;99.90
8105;DHT22;4095;48.942;9.104;2024-02-21T05:26:46;8.90;99.90
8105;DHT22;4095;48.942;9.104;2024-02-21T05:29:12;8.90;99.90
8105;DHT22;4095;48.942;9.104;2024-02-21T05:34:19;8.90;99.90
8105;DHT22;4095;48.942;9.104;2024-02-21T05:36:45;8.90;99.90
8105;DHT22;4095;48.942;9.104;2024-02-21T05:39:11;8.90;99.90
8105;DHT22;4095;48.942;9.104;2024-02-21T05:41:37;8.90;99.90
8105;DHT22;4095;48.942;9.104;2024-02-21T05:44:02;8.90;99.90
8105;DHT22;4095;48.942;9.104;2024-02-21T05:46:28;8.90;99.90
8105;DHT22;4095;48.942;9.104;2024-02-21T05:48:54;8.90;99.90
8105;DHT22;4095;48.942;9.104;2024-02-21T05:51:19;8.90;99.90
8105;DHT22;4095;48.942;9.104;2024-02-21T05:53:45;8.90;99.90
8105;DHT22;4095;48.942;9.104;2024-02-21T05:56:11;8.90;99.90
8105;DHT22;4095;48.942;9.104;2024-02-21T05:58:38;8.80;99.90
8105;DHT22;4095;48.942;9.104;2024-02-21T06:01:04;8.80;99.90
8105;DHT22;4095;48.942;9.104;2024-02-21T06:03:30;8.70;99.90
8105;DHT22;4095;48.942;9.104;2024-02-21T06:05:56;8.80;99.90
8105;DHT22;4095;48.942;9.104;2024-02-21T06:08:21;8.70;99.90
8105;DHT22;4095;48.942;9.104;2024-02-21T06:10:47;8.70;99.90
8105;DHT22;4095;48.942;9.104;2024-02-21T06:13:14;8.70;99.90
8105;DHT22;4095;48.942;9.104;2024-02-21T06:15:40;8.70;99.90
8105;DHT22;4095;48.942;9.104;2024-02-21T06:18:05;8.70;99.90
8105;DHT22;4095;48.942;9.104;2024-02-21T06:20:31;8.60;99.90
8105;DHT22;4095;48.942;9.104;2024-02-21T06:22:57;8.50;99.90
8105;DHT22;4095;48.942;9.104;2024-02-21T06:25:22;8.50;99.90
8105;DHT22;4095;48.942;9.104;2024-02-21T06:27:48;8.50;99.90
8105;DHT22;4095;48.942;9.104;2024-02-21T06:30:14;8.50;99.90
8105;DHT22;4095;48.942;9.104;2024-02-21T06:32:39;8.50;99.90
8105;DHT22;4095;48.942;9.104;2024-02-21T06:35:05;8.50;99.90
8105;DHT22;4095;48.942;9.104;2024-02-21T06:37:31;8.50;99.90
8105;DHT22;4095;48.942;9.104;2024-02-21T06:39:57;8.50;99.90
8105;DHT22;4095;48.942;9.104;2024-02-21T06:42:26;8.50;99.90
8105;DHT22;4095;48.942;9.104;2024-02-21T06:44:52;8.40;99.90
8105;DHT22;4095;48.942;9.104;2024-02-21T06:47:18;8.40;99.90
8105;DHT22;4095;48.942;9.104;2024-02-21T06:49:48;8.40;99.90
8105;DHT22;4095;48.942;9.104;2024-02-21T06:52:14;8.40;99.90
8105;DHT22;4095;48.942;9.104;2024-02-21T06:54:42;8.40;99.90
8105;DHT22;4095;48.942;9.104;2024-02-21T06:57:08;8.50;99.90
8105;DHT22;4095;48.942;9.104;2024-02-21T06:59:34;8.50;99.90
8105;DHT22;4095;48.942;9.104;2024-02-21T07:01:59;8.60;99.90
8105;DHT22;4095;48.942;9.104;2024-02-21T07:04:26;8.70;99.90
8105;DHT22;4095;48.942;9.104;2024-02-21T07:06:52;8.80;99.90
8105;DHT22;4095;48.942;9.104;2024-02-21T07:09:18;8.80;99.90
8105;DHT22;4095;48.942;9.104;2024-02-21T07:11:43;8.90;99.90
8105;DHT22;4095;48.942;9.104;2024-02-21T07:14:09;8.90;99.90
8105;DHT22;4095;48.942;9.104;2024-02-21T07:16:34;9.00;99.90
8105;DHT22;4095;48.942;9.104;2024-02-21T07:19:00;9.10;99.90
8105;DHT22;4095;48.942;9.104;2024-02-21T07:21:26;9.20;99.90
8105;DHT22;4095;48.942;9.104;2024-02-21T07:23:51;9.20;99.90
8105;DHT22;4095;48.942;9.104;2024-02-21T07:26:17;9.30;99.90
8105;DHT22;4095;48.942;9.104;2024-02-21T07:28:42;9.40;99.90
8105;DHT22;4095;48.942;9.104;2024-02-21T07:31:08;9.50;99.90
8105;DHT22;4095;48.942;9.104;2024-02-21T07:33:33;9.60;99.90
8105;DHT22;4095;48.942;9.104;2024-02-21T07:36:01;9.70;99.90
8105;DHT22;4095;48.942;9.104;2024-02-21T07:38:26;9.70;99.90
8105;DHT22;4095;48.942;9.104;2024-02-21T07:40:52;9.80;99.90
8105;DHT22;4095;48.942;9.104;2024-02-21T07:43:17;9.90;99.90
8105;DHT22;4095;48.942;9.104;2024-02-21T07:45:43;10.00;99.90
8105;DHT22;4095;48.942;9.104;2024-02-21T07:48:09;10.10;99.90
8105;DHT22;4095;48.942;9.104;2024-02-21T07:50:34;10.20;99.90
8105;DHT22;4095;48.942;9.104;2024-02-21T07:53:00;10.20;99.90
8105;DHT22;4095;48.942;9.104;2024-02-21T07:55:25;10.20;99.90
8105;DHT22;4095;48.942;9.104;2024-02-21T07:57:51;10.40;99.90
8105;DHT22;4095;48.942;9.104;2024-02-21T08:00:17;10.50;99.90
8105;DHT22;4095;48.942;9.104;2024-02-21T08:02:49;10.60;99.90
8105;DHT22;4095;48.942;9.104;2024-02-21T08:05:14;10.70;99.90
8105;DHT22;4095;48.942;9.104;2024-02-21T08:07:40;10.80;99.90
8105;DHT22;4095;48.942;9.104;2024-02-21T08:10:06;10.90;99.90
8105;DHT22;4095;48.942;9.104;2024-02-21T08:12:34;11.00;99.90
8105;DHT22;4095;48.942;9.104;2024-02-21T08:15:01;11.10;99.90
8105;DHT22;4095;48.942;9.104;2024-02-21T08:17:28;11.10;99.90
8105;DHT22;4095;48.942;9.104;2024-02-21T08:19:54;11.20;99.90
8105;DHT22;4095;48.942;9.104;2024-02-21T08:22:20;11.30;99.90
8105;DHT22;4095;48.942;9.104;2024-02-21T08:24:45;11.40;99.90
8105;DHT22;4095;48.942;9.104;2024-02-21T08:27:11;11.40;99.90
8105;DHT22;4095;48.942;9.104;2024-02-21T08:29:37;11.40;99.90
8105;DHT22;4095;48.942;9.104;2024-02-21T08:32:02;11.50;99.90
8105;DHT22;4095;48.942;9.104;2024-02-21T08:34:28;11.50;99.90
8105;DHT22;4095;48.942;9.104;2024-02-21T08:36:55;11.60;99.90
8105;DHT22;4095;48.942;9.104;2024-02-21T08:39:21;11.70;99.90
8105;DHT22;4095;48.942;9.104;2024-02-21T08:41:47;11.70;99.90
8105;DHT22;4095;48.942;9.104;2024-02-21T08:44:12;11.80;99.90
8105;DHT22;4095;48.942;9.104;2024-02-21T08:46:38;11.80;99.90
8105;DHT22;4095;48.942;9.104;2024-02-21T08:49:06;11.80;99.90
8105;DHT22;4095;48.942;9.104;2024-02-21T08:51:31;11.80;99.90
8105;DHT22;4095;48.942;9.104;2024-02-21T08:53:57;11.80;99.90
8105;DHT22;4095;48.942;9.104;2024-02-21T08:56:23;11.80;99.90
8105;DHT22;4095;48.942;9.104;2024-02-21T08:58:48;11.90;99.90
8105;DHT22;4095;48.942;9.104;2024-02-21T09:01:14;11.90;99.90
8105;DHT22;4095;48.942;9.104;2024-02-21T09:03:40;12.00;99.90
8105;DHT22;4095;48.942;9.104;2024-02-21T09:06:06;12.10;99.90
8105;DHT22;4095;48.942;9.104;2024-02-21T09:08:32;12.10;99.90
8105;DHT22;4095;48.942;9.104;2024-02-21T09:10:59;12.20;99.90
8105;DHT22;4095;48.942;9.104;2024-02-21T09:13:25;12.30;99.90
8105;DHT22;4095;48.942;9.104;2024-02-21T09:15:50;12.40;99.90
8105;DHT22;4095;48.942;9.104;2024-02-21T09:18:16;12.40;99.90
8105;DHT22;4095;48.942;9.104;2024-02-21T09:20:42;12.40;99.90
8105;DHT22;4095;48.942;9.104;2024-02-21T09:23:08;12.40;99.90
8105;DHT22;4095;48.942;9.104;2024-02-21T09:25:34;12.40;99.90
8105;DHT22;4095;48.942;9.104;2024-02-21T09:28:01;12.50;99.90
8105;DHT22;4095;48.942;9.104;2024-02-21T09:30:27;12.60;99.90
8105;DHT22;4095;48.942;9.104;2024-02-21T09:32:53;12.80;99.90
8105;DHT22;4095;48.942;9.104;2024-02-21T09:35:18;12.80;99.90
8105;DHT22;4095;48.942;9.104;2024-02-21T09:37:44;12.80;99.90
8105;DHT22;4095;48.942;9.104;2024-02-21T09:40:10;12.90;99.90
8105;DHT22;4095;48.942;9.104;2024-02-21T09:42:41;13.00;99.90
8105;DHT22;4095;48.942;9.104;2024-02-21T09:45:33;13.10;99.90
8105;DHT22;4095;48.942;9.104;2024-02-21T09:48:19;13.10;99.90
8105;DHT22;4095;48.942;9.104;2024-02-21T09:50:50;13.20;99.90
8105;DHT22;4095;48.942;9.104;2024-02-21T09:53:18;13.30;99.90
8105;DHT22;4095;48.942;9.104;2024-02-21T09:55:45;13.40;99.90
8105;DHT22;4095;48.942;9.104;2024-02-21T09:58:11;13.60;99.90
8105;DHT22;4095;48.942;9.104;2024-02-21T10:00:37;13.60;99.80
8105;DHT22;4095;48.942;9.104;2024-02-21T10:03:03;13.70;99.90
8105;DHT22;4095;48.942;9.104;2024-02-21T10:05:35;13.90;99.50
8105;DHT22;4095;48.942;9.104;2024-02-21T10:08:01;14.10;99.60
8105;DHT22;4095;48.942;9.104;2024-02-21T10:10:27;14.20;99.50
8105;DHT22;4095;48.942;9.104;2024-02-21T10:12:53;14.40;99.60
8105;DHT22;4095;48.942;9.104;2024-02-21T10:15:24;14.60;99.20
8105;DHT22;4095;48.942;9.104;2024-02-21T10:17:58;14.70;98.70
8105;DHT22;4095;48.942;9.104;2024-02-21T10:20:24;14.90;98.90
8105;DHT22;4095;48.942;9.104;2024-02-21T10:23:03;15.10;98.10
8105;DHT22;4095;48.942;9.104;2024-02-21T10:25:36;15.20;97.90
8105;DHT22;4095;48.942;9.104;2024-02-21T10:28:07;15.30;98.10
8105;DHT22;4095;48.942;9.104;2024-02-21T10:30:32;15.30;97.90
8105;DHT22;4095;48.942;9.104;2024-02-21T10:32:58;15.30;97.90
8105;DHT22;4095;48.942;9.104;2024-02-21T10:35:31;15.30;97.60
8105;DHT22;4095;48.942;9.104;2024-02-21T10:37:58;15.30;97.60
8105;DHT22;4095;48.942;9.104;2024-02-21T10:40:28;15.40;97.70
8105;DHT22;4095;48.942;9.104;2024-02-21T10:42:58;15.60;97.90
8105;DHT22;4095;48.942;9.104;2024-02-21T10:45:32;15.80;97.60
8105;DHT22;4095;48.942;9.104;2024-02-21T10:48:11;15.80;96.70
8105;DHT22;4095;48.942;9.104;2024-02-21T10:56:34;16.40;97.20
8105;DHT22;4095;48.942;9.104;2024-02-21T10:59:02;16.60;96.40
8105;DHT22;4095;48.942;9.104;2024-02-21T11:01:29;16.60;95.70
8105;DHT22;4095;48.942;9.104;2024-02-21T11:04:00;16.60;95.50
8105;DHT22;4095;48.942;9.104;2024-02-21T11:06:27;16.90;96.00
8105;DHT22;4095;48.942;9.104;2024-02-21T11:09:08;17.00;94.70
8105;DHT22;4095;48.942;9.104;2024-02-21T11:11:38;17.20;94.80
8105;DHT22;4095;48.942;9.104;2024-02-21T11:14:20;17.50;94.90
8105;DHT22;4095;48.942;9.104;2024-02-21T11:16:47;17.80;95.00
8105;DHT22;4095;48.942;9.104;2024-02-21T11:19:24;17.90;94.80
8105;DHT22;4095;48.942;9.104;2024-02-21T11:21:51;17.80;94.30
8105;DHT22;4095;48.942;9.104;2024-02-21T11:24:29;17.70;95.20
8105;DHT22;4095;48.942;9.104;2024-02-21T11:26:56;17.70;94.00
8105;DHT22;4095;48.942;9.104;2024-02-21T11:29:26;17.70;94.60
8105;DHT22;4095;48.942;9.104;2024-02-21T11:31:51;17.70;94.40
8105;DHT22;4095;48.942;9.104;2024-02-21T11:34:18;17.60;94.30
8105;DHT22;4095;48.942;9.104;2024-02-21T11:36:51;17.70;94.10
8105;DHT22;4095;48.942;9.104;2024-02-21T11:39:26;17.70;93.70
8105;DHT22;4095;48.942;9.104;2024-02-21T11:42:02;17.70;94.00
8105;DHT22;4095;48.942;9.104;2024-02-21T11:44:27;17.70;93.70
8105;DHT22;4095;48.942;9.104;2024-02-21T11:46:53;17.80;93.80
8105;DHT22;4095;48.942;9.104;2024-02-21T11:49:18;17.70;93.60
8105;DHT22;4095;48.942;9.104;2024-02-21T11:51:44;17.60;93.60
8105;DHT22;4095;48.942;9.104;2024-02-21T11:54:11;17.50;94.80
8105;DHT22;4095;48.942;9.104;2024-02-21T11:56:38;17.30;94.50
8105;DHT22;4095;48.942;9.104;2024-02-21T11:59:04;17.10;94.00
8105;DHT22;4095;48.942;9.104;2024-02-21T12:01:32;16.90;93.70
8105;DHT22;4095;48.942;9.104;2024-02-21T12:03:57;16.80;94.50
8105;DHT22;4095;48.942;9.104;2024-02-21T12:06:23;16.70;94.50
8105;DHT22;4095;48.942;9.104;2024-02-21T12:08:49;16.60;94.10
8105;DHT22;4095;48.942;9.104;2024-02-21T12:11:23;16.70;94.60
8105;DHT22;4095;48.942;9.104;2024-02-21T12:13:59;16.80;94.30
8105;DHT22;4095;48.942;9.104;2024-02-21T12:16:27;16.90;94.00
8105;DHT22;4095;48.942;9.104;2024-02-21T12:18:55;17.10;93.70
8105;DHT22;4095;48.942;9.104;2024-02-21T12:21:24;17.20;94.10
8105;DHT22;4095;48.942;9.104;2024-02-21T12:23:50;17.30;94.20
8105;DHT22;4095;48.942;9.104;2024-02-21T12:26:15;17.60;94.80
8105;DHT22;4095;48.942;9.104;2024-02-21T12:28:41;17.70;94.50
8105;DHT22;4095;48.942;9.104;2024-02-21T12:31:06;17.90;94.30
8105;DHT22;4095;48.942;9.104;2024-02-21T12:33:32;18.20;94.40
8105;DHT22;4095;48.942;9.104;2024-02-21T12:35:58;18.30;94.70
8105;DHT22;4095;48.942;9.104;2024-02-21T12:38:24;18.20;94.50
8105;DHT22;4095;48.942;9.104;2024-02-21T12:40:49;18.10;93.40
8105;DHT22;4095;48.942;9.104;2024-02-21T12:43:15;17.80;94.60
8105;DHT22;4095;48.942;9.104;2024-02-21T12:45:40;17.70;94.40
8105;DHT22;4095;48.942;9.104;2024-02-21T12:48:06;17.60;93.90
8105;DHT22;4095;48.942;9.104;2024-02-21T12:50:32;17.40;93.60
8105;DHT22;4095;48.942;9.104;2024-02-21T12:52:58;17.30;94.10
8105;DHT22;4095;48.942;9.104;2024-02-21T12:55:24;17.20;94.20
8105;DHT22;4095;48.942;9.104;2024-02-21T12:57:49;17.30;94.10
8105;DHT22;4095;48.942;9.104;2024-02-21T13:00:15;17.30;93.90
8105;DHT22;4095;48.942;9.104;2024-02-21T13:02:41;17.30;94.30
8105;DHT22;4095;48.942;9.104;2024-02-21T13:05:07;17.40;95.30
8105;DHT22;4095;48.942;9.104;2024-02-21T13:07:33;17.40;94.90
8105;DHT22;4095;48.942;9.104;2024-02-21T13:09:58;17.40;95.70
8105;DHT22;4095;48.942;9.104;2024-02-21T13:12:25;17.30;95.50
8105;DHT22;4095;48.942;9.104;2024-02-21T13:14:54;17.30;95.40
8105;DHT22;4095;48.942;9.104;2024-02-21T13:17:20;17.20;94.50
8105;DHT22;4095;48.942;9.104;2024-02-21T13:19:47;17.00;95.30
8105;DHT22;4095;48.942;9.104;2024-02-21T13:22:13;17.00;95.50
8105;DHT22;4095;48.942;9.104;2024-02-21T13:24:38;16.90;95.20
8105;DHT22;4095;48.942;9.104;2024-02-21T13:27:04;16.90;94.90
8105;DHT22;4095;48.942;9.104;2024-02-21T13:29:30;16.70;94.90
8105;DHT22;4095;48.942;9.104;2024-02-21T13:31:55;16.60;95.70
8105;DHT22;4095;48.942;9.104;2024-02-21T13:34:21;16.60;96.10
8105;DHT22;4095;48.942;9.104;2024-02-21T13:36:46;16.60;96.10
8105;DHT22;4095;48.942;9.104;2024-02-21T13:39:12;16.60;96.80
8105;DHT22;4095;48.942;9.104;2024-02-21T13:41:42;16.50;96.40
8105;DHT22;4095;48.942;9.104;2024-02-21T13:44:08;16.40;95.30
8105;DHT22;4095;48.942;9.104;2024-02-21T13:46:34;16.30;95.50
8105;DHT22;4095;48.942;9.104;2024-02-21T13:49:04;16.30;95.40
8105;DHT22;4095;48.942;9.104;2024-02-21T13:51:34;16.20;95.80
8105;DHT22;4095;48.942;9.104;2024-02-21T13:54:03;16.20;96.60
8105;DHT22;4095;48.942;9.104;2024-02-21T13:56:30;16.10;96.90
8105;DHT22;4095;48.942;9.104;2024-02-21T13:58:56;16.10;96.40
8105;DHT22;4095;48.942;9.104;2024-02-21T14:01:21;16.10;97.30
8105;DHT22;4095;48.942;9.104;2024-02-21T14:03:47;16.10;97.30
8105;DHT22;4095;48.942;9.104;2024-02-21T14:06:13;16.00;96.70
8105;DHT22;4095;48.942;9.104;2024-02-21T14:08:38;16.00;96.90
8105;DHT22;4095;48.942;9.104;2024-02-21T14:11:06;16.00;97.60
8105;DHT22;4095;48.942;9.104;2024-02-21T14:13:32;15.90;97.70
8105;DHT22;4095;48.942;9.104;2024-02-21T14:15:57;15.90;97.60
8105;DHT22;4095;48.942;9.104;2024-02-21T14:18:23;15.80;96.80
8105;DHT22;4095;48.942;9.104;2024-02-21T14:20:48;15.70;96.80
8105;DHT22;4095;48.942;9.104;2024-02-21T14:23:14;15.70;97.30
8105;DHT22;4095;48.942;9.104;2024-02-21T14:25:40;15.60;96.50
8105;DHT22;4095;48.942;9.104;2024-02-21T14:28:08;15.60;96.90
8105;DHT22;4095;48.942;9.104;2024-02-21T14:30:36;15.60;97.20
8105;DHT22;4095;48.942;9.104;2024-02-21T14:33:02;15.60;98.40
8105;DHT22;4095;48.942;9.104;2024-02-21T14:35:27;15.60;97.60
8105;DHT22;4095;48.942;9.104;2024-02-21T14:37:53;15.50;97.50
8105;DHT22;4095;48.942;9.104;2024-02-21T14:40:22;15.60;97.60
8105;DHT22;4095;48.942;9.104;2024-02-21T14:42:48;15.60;97.60
8105;DHT22;4095;48.942;9.104;2024-02-21T14:45:13;15.60;98.40
8105;DHT22;4095;48.942;9.104;2024-02-21T14:47:39;15.50;98.10
8105;DHT22;4095;48.942;9.104;2024-02-21T14:50:05;15.50;97.80
8105;DHT22;4095;48.942;9.104;2024-02-21T14:52:32;15.50;97.30
8105;DHT22;4095;48.942;9.104;2024-02-21T14:54:58;15.50;97.30
8105;DHT22;4095;48.942;9.104;2024-02-21T14:57:24;15.50;97.20
8105;DHT22;4095;48.942;9.104;2024-02-21T14:59:50;15.40;97.80
8105;DHT22;4095;48.942;9.104;2024-02-21T15:02:24;15.40;97.80
8105;DHT22;4095;48.942;9.104;2024-02-21T15:04:49;15.40;97.10
8105;DHT22;4095;48.942;9.104;2024-02-21T15:07:17;15.40;97.80
8105;DHT22;4095;48.942;9.104;2024-02-21T15:09:42;15.40;98.20
8105;DHT22;4095;48.942;9.104;2024-02-21T15:12:08;15.40;98.70
8105;DHT22;4095;48.942;9.104;2024-02-21T15:14:34;15.30;98.70
8105;DHT22;4095;48.942;9.104;2024-02-21T15:16:59;15.30;98.60
8105;DHT22;4095;48.942;9.104;2024-02-21T15:19:25;15.30;98.70
8105;DHT22;4095;48.942;9.104;2024-02-21T15:21:51;15.30;98.70
8105;DHT22;4095;48.942;9.104;2024-02-21T15:24:16;15.30;98.50
8105;DHT22;4095;48.942;9.104;2024-02-21T15:26:42;15.30;99.20
8105;DHT22;4095;48.942;9.104;2024-02-21T15:29:08;15.30;98.70
8105;DHT22;4095;48.942;9.104;2024-02-21T15:31:34;15.30;98.10
8105;DHT22;4095;48.942;9.104;2024-02-21T15:34:00;15.30;97.90
8105;DHT22;4095;48.942;9.104;2024-02-21T15:36:25;15.30;97.40
8105;DHT22;4095;48.942;9.104;2024-02-21T15:38:53;15.30;98.00
8105;DHT22;4095;48.942;9.104;2024-02-21T15:41:20;15.20;97.80
8105;DHT22;4095;48.942;9.104;2024-02-21T15:43:47;15.30;97.90
8105;DHT22;4095;48.942;9.104;2024-02-21T15:46:12;15.20;97.50
8105;DHT22;4095;48.942;9.104;2024-02-21T15:48:38;15.20;97.60
8105;DHT22;4095;48.942;9.104;2024-02-21T15:51:05;15.20;97.20
8105;DHT22;4095;48.942;9.104;2024-02-21T15:53:31;15.20;97.70
8105;DHT22;4095;48.942;9.104;2024-02-21T15:55:57;15.20;97.60
8105;DHT22;4095;48.942;9.104;2024-02-21T15:58:22;15.10;97.60
8105;DHT22;4095;48.942;9.104;2024-02-21T16:00:49;15.00;98.80
8105;DHT22;4095;48.942;9.104;2024-02-21T16:03:15;15.00;99.00
8105;DHT22;4095;48.942;9.104;2024-02-21T16:05:44;15.00;99.50
8105;DHT22;4095;48.942;9.104;2024-02-21T16:08:09;14.90;99.70